Time;durP1;ratioP1;P1;durP2;ratioP2;P2;SDS_P1;SDS_P2;PMS_P1;PMS_P2;Temp;Humidity;BMP_temperature;BMP_pressure;BME280_temperature;BME280_humidity;BME280_pressure;Samples;Min_cycle;Max_cycle;Signal;HPM_P1;HPM_P2
2023/01/10 00:01:07;;;;;;;19.98;11.48;;;;;;;9.17;67.19;99560.88;5069002;28;20412;-64
2023/01/10 00:03:32;;;;;;;22.83;13.63;;;;;;;9.22;66.90;99553.78;5079060;28;20565;-63
2023/01/10 00:05:58;;;;;;;22.92;13.30;;;;;;;9.13;67.06;99558.34;5082796;28;20144;-63
2023/01/10 00:08:23;;;;;;;22.23;13.40;;;;;;;9.21;66.76;99552.03;5079110;28;20123;-64
2023/01/10 00:10:48;;;;;;;19.98;12.05;;;;;;;9.23;66.77;99563.34;5081547;28;20052;-64
2023/01/10 00:13:24;;;;;;;20.52;11.88;;;;;;;9.04;67.30;99569.09;5094732;28;20044;-64
2023/01/10 00:15:52;;;;;;;20.77;11.73;;;;;;;9.11;67.07;99569.81;5092974;28;20035;-64
2023/01/10 00:18:18;;;;;;;18.88;11.35;;;;;;;9.13;67.14;99578.47;5092267;28;20126;-64
2023/01/10 00:20:44;;;;;;;19.08;12.00;;;;;;;9.10;67.41;99576.81;5086656;28;20137;-65
2023/01/10 00:23:10;;;;;;;20.42;12.60;;;;;;;9.10;67.40;99575.97;5083314;28;20043;-65
2023/01/10 00:25:36;;;;;;;20.17;12.43;;;;;;;9.20;67.10;99579.16;5069953;28;20029;-64
2023/01/10 00:28:20;;;;;;;16.25;10.30;;;;;;;9.22;67.05;99580.00;5068390;28;20048;-64
2023/01/10 00:30:53;;;;;;;17.92;11.60;;;;;;;9.17;67.18;99592.34;5080295;28;20059;-64
2023/01/10 00:33:19;;;;;;;17.30;10.85;;;;;;;9.30;67.18;99602.44;5087014;28;20036;-65
2023/01/10 00:35:46;;;;;;;19.95;10.85;;;;;;;9.32;66.66;99611.13;5060429;28;20046;-65
2023/01/10 00:38:12;;;;;;;17.13;11.27;;;;;;;9.43;66.52;99616.06;5079372;28;20042;-64
2023/01/10 00:40:39;;;;;;;16.95;10.02;;;;;;;9.34;66.85;99625.06;5060246;28;20123;-65
2023/01/10 00:45:52;;;;;;;18.10;11.02;;;;;;;9.37;66.71;99639.81;5058634;28;20047;-65
2023/01/10 00:48:18;;;;;;;20.73;12.52;;;;;;;9.36;66.91;99645.97;5079290;28;20051;-65
2023/01/10 00:50:43;;;;;;;16.92;9.63;;;;;;;9.41;66.54;99644.06;5060321;28;20036;-65
2023/01/10 00:53:09;;;;;;;17.38;11.05;;;;;;;9.47;66.39;99633.41;5077937;28;20032;-64
2023/01/10 00:55:35;;;;;;;18.60;11.65;;;;;;;9.53;66.58;99648.97;5067924;28;20116;-65
2023/01/10 00:58:01;;;;;;;17.83;11.55;;;;;;;9.58;66.38;99656.72;5073064;28;20032;-65
2023/01/10 01:00:27;;;;;;;15.55;10.63;;;;;;;9.66;66.14;99654.72;5073134;28;20059;-65
2023/01/10 01:02:52;;;;;;;15.48;10.07;;;;;;;9.76;65.73;99657.94;5090293;28;20028;-66
2023/01/10 01:05:18;;;;;;;17.42;10.60;;;;;;;9.61;66.24;99652.25;5077671;28;21765;-65
2023/01/10 01:07:47;;;;;;;16.52;10.38;;;;;;;9.66;65.76;99656.50;5077573;28;20044;-65
2023/01/10 01:10:27;;;;;;;22.25;11.52;;;;;;;9.60;65.92;99666.25;5067458;28;20039;-64
2023/01/10 01:12:56;;;;;;;17.88;10.68;;;;;;;9.54;66.12;99665.59;5069889;28;20029;-66
2023/01/10 01:15:22;;;;;;;15.55;9.77;;;;;;;9.51;66.09;99661.28;5078540;28;20029;-65
2023/01/10 01:17:48;;;;;;;14.27;9.18;;;;;;;9.49;66.12;99673.56;5077588;28;20054;-66
2023/01/10 01:20:13;;;;;;;16.58;10.35;;;;;;;9.30;66.33;99670.63;5088127;28;20391;-65
2023/01/10 01:22:40;;;;;;;16.65;10.63;;;;;;;9.17;66.52;99681.47;5041350;28;20062;-65
2023/01/10 01:25:06;;;;;;;17.40;10.00;;;;;;;8.95;67.02;99682.03;5053547;28;20088;-65
2023/01/10 01:27:33;;;;;;;15.63;9.68;;;;;;;8.84;67.35;99687.53;5078859;28;20045;-65
2023/01/10 01:30:00;;;;;;;15.35;9.85;;;;;;;8.71;67.60;99691.38;5088086;28;20040;-65
2023/01/10 01:32:25;;;;;;;15.48;9.23;;;;;;;8.61;67.88;99695.13;5053627;28;20043;-65
2023/01/10 01:34:51;;;;;;;17.00;10.32;;;;;;;8.52;67.99;99698.81;5058142;28;20037;-66
2023/01/10 01:37:18;;;;;;;17.48;9.77;;;;;;;8.38;68.66;99711.41;5078240;28;20123;-65
2023/01/10 01:39:45;;;;;;;16.50;9.25;;;;;;;8.35;68.68;99712.28;5077033;28;20047;-65
2023/01/10 01:42:32;;;;;;;14.45;9.00;;;;;;;8.29;68.50;99709.78;5060390;28;20028;-64
2023/01/10 01:45:07;;;;;;;13.68;9.27;;;;;;;8.29;68.65;99712.41;5090049;28;20105;-64
2023/01/10 01:47:37;;;;;;;16.85;10.10;;;;;;;8.25;68.66;99720.38;5083590;28;20471;-65
2023/01/10 01:50:03;;;;;;;16.77;10.10;;;;;;;8.15;68.68;99714.50;5074699;28;20029;-64
2023/01/10 01:52:33;;;;;;;16.00;9.15;;;;;;;8.10;68.75;99724.22;5064525;28;20064;-63
2023/01/10 01:55:02;;;;;;;14.90;9.40;;;;;;;8.03;68.82;99728.69;5082512;28;20044;-65
2023/01/10 01:57:31;;;;;;;17.00;9.48;;;;;;;7.98;69.10;99730.56;5075809;28;20538;-65
2023/01/10 01:59:59;;;;;;;16.00;9.70;;;;;;;7.92;69.10;99732.44;5074692;28;20124;-65
2023/01/10 02:02:38;;;;;;;14.55;9.43;;;;;;;7.86;69.21;99730.81;5074441;28;20541;-65
2023/01/10 02:05:11;;;;;;;16.58;9.52;;;;;;;7.76;69.30;99729.28;5090604;28;20505;-65
2023/01/10 02:07:41;;;;;;;16.77;10.30;;;;;;;7.69;69.37;99727.69;5074404;28;20037;-65
2023/01/10 02:10:07;;;;;;;14.15;8.73;;;;;;;7.64;69.49;99726.03;5058631;28;20032;-64
2023/01/10 02:12:33;;;;;;;15.93;10.18;;;;;;;7.58;69.56;99723.53;5086098;28;20032;-64
2023/01/10 02:14:59;;;;;;;15.68;10.35;;;;;;;7.54;69.67;99721.00;5073086;28;20421;-63
2023/01/10 02:17:24;;;;;;;19.02;10.65;;;;;;;7.47;69.81;99724.66;5074266;28;20102;-65
2023/01/10 02:19:58;;;;;;;16.35;10.23;;;;;;;7.45;69.96;99729.88;5066894;28;20101;-65
2023/01/10 02:22:42;;;;;;;19.30;10.98;;;;;;;7.41;70.09;99725.59;5052280;28;20476;-65
2023/01/10 02:25:28;;;;;;;17.15;10.25;;;;;;;7.36;70.24;99723.09;5074152;28;20530;-64
2023/01/10 02:28:14;;;;;;;15.68;9.40;;;;;;;7.38;70.08;99723.94;5074205;28;20544;-65
2023/01/10 02:30:55;;;;;;;15.43;9.57;;;;;;;7.36;70.17;99732.69;5042644;28;20086;-64
2023/01/10 02:33:26;;;;;;;15.05;9.30;;;;;;;7.35;69.97;99723.13;5073895;28;20029;-64
2023/01/10 02:35:53;;;;;;;16.90;10.75;;;;;;;7.39;70.15;99733.47;5073880;28;20086;-65
2023/01/10 02:38:55;;;;;;;15.13;9.48;;;;;;;7.40;69.94;99752.63;5074007;28;20064;-65
2023/01/10 02:41:30;;;;;;;14.13;8.95;;;;;;;7.39;70.12;99751.78;5025346;28;20430;-65
2023/01/10 02:44:16;;;;;;;16.58;9.95;;;;;;;7.34;70.13;99744.91;5056013;28;20029;-66
2023/01/10 02:46:44;;;;;;;13.98;9.02;;;;;;;7.38;69.87;99741.34;5068818;28;20529;-65
2023/01/10 02:49:09;;;;;;;15.07;9.48;;;;;;;7.41;69.93;99741.28;5067745;28;20024;-65
2023/01/10 02:51:35;;;;;;;13.80;9.27;;;;;;;7.42;70.08;99753.50;5055661;28;20048;-65
2023/01/10 02:54:12;;;;;;;16.40;10.25;;;;;;;7.70;69.25;99768.63;5056134;28;20060;-65
2023/01/10 02:56:44;;;;;;;19.42;10.63;;;;;;;7.54;68.63;99760.22;5073740;28;20172;-65
2023/01/10 02:59:46;;;;;;;19.20;11.73;;;;;;;7.52;68.69;99764.63;5073416;28;20055;-65
2023/01/10 03:02:33;;;;;;;14.70;9.73;;;;;;;7.53;68.82;99761.97;5073962;28;20032;-65
2023/01/10 03:05:09;;;;;;;18.02;10.35;;;;;;;7.65;68.54;99774.78;5073515;28;20032;-64
2023/01/10 03:07:44;;;;;;;16.83;9.82;;;;;;;7.81;68.60;99779.72;5073404;28;20028;-65
2023/01/10 03:10:35;;;;;;;22.30;10.30;;;;;;;7.94;68.20;99789.09;5073573;28;20127;-65
2023/01/10 03:13:09;;;;;;;28.55;10.45;;;;;;;7.91;68.28;99796.97;5073497;28;20484;-65
2023/01/10 03:15:38;;;;;;;19.55;8.70;;;;;;;8.06;67.74;99799.28;5062861;28;20029;-64
2023/01/10 03:18:12;;;;;;;29.23;9.10;;;;;;;8.01;67.82;99814.19;5069348;28;20055;-67
2023/01/10 03:20:39;;;;;;;37.97;9.98;;;;;;;8.19;67.37;99823.44;5073320;28;20033;-64
2023/01/10 03:23:05;;;;;;;27.40;10.00;;;;;;;8.27;67.12;99828.53;5073548;28;20036;-65
2023/01/10 03:25:35;;;;;;;44.35;10.23;;;;;;;8.31;66.99;99828.41;5062940;28;20043;-65
2023/01/10 03:28:19;;;;;;;22.88;8.90;;;;;;;8.19;66.70;99836.53;5093549;28;20399;-65
2023/01/10 03:31:27;;;;;;;27.00;8.93;;;;;;;8.23;66.92;99837.34;5093795;28;20028;-65
2023/01/10 03:33:53;;;;;;;27.33;8.70;;;;;;;8.21;67.13;99849.56;5051294;28;20052;-65
2023/01/10 03:36:31;;;;;;;23.23;7.78;;;;;;;8.27;66.98;99850.31;5077255;28;20041;-64
2023/01/10 03:39:17;;;;;;;23.33;7.80;;;;;;;8.24;66.97;99852.13;5077345;28;20033;-65
2023/01/10 03:42:07;;;;;;;19.65;6.95;;;;;;;8.35;66.74;99858.00;5072402;28;20033;-64
2023/01/10 03:44:57;;;;;;;23.77;7.18;;;;;;;8.51;66.26;99856.81;5070779;28;20095;-65
2023/01/10 03:47:34;;;;;;;43.20;8.00;;;;;;;8.42;66.48;99864.88;5080268;28;20075;-64
2023/01/10 03:50:05;;;;;;;17.90;6.72;;;;;;;8.40;66.72;99864.03;5070980;28;20063;-65
2023/01/10 03:52:34;;;;;;;20.65;7.47;;;;;;;8.52;66.62;99876.88;5066366;28;20078;-65
2023/01/10 03:55:01;;;;;;;20.88;6.65;;;;;;;8.55;66.49;99866.34;5081217;28;20108;-67
2023/01/10 03:57:27;;;;;;;40.20;8.65;;;;;;;8.68;66.23;99879.16;5083365;28;20432;-64
2023/01/10 03:59:57;;;;;;;26.48;8.18;;;;;;;8.60;66.09;99877.56;5076709;28;20040;-64
2023/01/10 04:02:26;;;;;;;27.95;7.95;;;;;;;8.64;66.20;99878.38;5076947;28;20032;-65
2023/01/10 04:04:52;;;;;;;18.40;7.05;;;;;;;8.69;66.35;99886.13;5076733;28;20025;-64
2023/01/10 04:07:17;;;;;;;22.35;10.15;;;;;;;8.78;66.07;99888.56;5030349;28;20063;-64
2023/01/10 04:09:43;;;;;;;39.80;12.60;;;;;;;8.85;65.83;99895.34;5072644;28;20124;-64
2023/01/10 04:12:09;;;;;;;18.88;9.23;;;;;;;8.83;65.83;99897.16;5065355;28;20040;-64
2023/01/10 04:14:34;;;;;;;23.27;9.88;;;;;;;8.94;65.81;99908.28;5073021;28;20040;-64
2023/01/10 04:17:00;;;;;;;20.02;10.02;;;;;;;9.01;65.65;99909.84;5075680;28;20039;-64
2023/01/10 04:19:26;;;;;;;23.42;11.40;;;;;;;9.56;64.61;99916.41;5076581;28;20055;-64
2023/01/10 04:21:52;;;;;;;24.77;12.27;;;;;;;9.25;65.05;99920.66;5076448;28;20135;-64
2023/01/10 04:24:17;;;;;;;22.92;10.98;;;;;;;9.15;64.85;99929.66;5076212;28;20082;-64
2023/01/10 04:26:43;;;;;;;17.55;8.95;;;;;;;9.05;65.22;99921.97;5058506;28;20032;-64
2023/01/10 04:29:09;;;;;;;20.45;9.88;;;;;;;8.99;65.45;99926.50;5076239;28;20076;-65
2023/01/10 04:31:35;;;;;;;22.92;11.48;;;;;;;9.09;65.54;99935.88;5058685;28;20037;-65
2023/01/10 04:34:00;;;;;;;20.60;10.60;;;;;;;9.17;65.23;99936.56;5058170;28;20041;-64
2023/01/10 04:36:26;;;;;;;19.25;10.52;;;;;;;9.14;64.93;99952.38;5084432;28;20116;-64
2023/01/10 04:38:52;;;;;;;16.80;9.82;;;;;;;9.07;65.15;99946.41;5079608;28;20426;-64
2023/01/10 04:41:17;;;;;;;16.52;9.77;;;;;;;9.08;65.09;99955.13;5071076;28;20047;-64
2023/01/10 04:43:43;;;;;;;15.77;9.00;;;;;;;9.13;65.19;99959.34;5077572;28;20380;-64
2023/01/10 04:46:08;;;;;;;21.63;11.90;;;;;;;9.24;64.88;99953.88;5057382;28;20134;-63
2023/01/10 04:48:36;;;;;;;21.35;11.77;;;;;;;9.30;64.72;99955.53;5091154;28;20042;-63
2023/01/10 04:51:02;;;;;;;22.17;12.75;;;;;;;9.30;64.45;99956.38;5074634;28;20043;-63
2023/01/10 04:53:27;;;;;;;16.55;10.23;;;;;;;9.30;64.62;99951.13;5080237;28;20060;-64
2023/01/10 04:55:53;;;;;;;25.08;13.60;;;;;;;9.30;64.60;99955.53;5058561;28;20124;-63
2023/01/10 04:58:21;;;;;;;21.88;12.80;;;;;;;9.25;64.46;99962.59;5078536;28;22614;-63
2023/01/10 05:00:47;;;;;;;21.88;13.90;;;;;;;9.16;64.91;99963.69;5060062;28;20039;-63
2023/01/10 05:03:12;;;;;;;29.65;16.73;;;;;;;9.24;64.63;99972.22;5078479;28;20111;-64
2023/01/10 05:05:38;;;;;;;20.17;11.32;;;;;;;9.06;64.88;99983.16;5082550;28;20422;-63
2023/01/10 05:08:03;;;;;;;22.67;12.55;;;;;;;9.05;64.99;99994.50;5049573;28;20045;-63
2023/01/10 05:10:29;;;;;;;20.40;11.73;;;;;;;8.98;65.06;99996.41;5039842;28;20047;-64
2023/01/10 05:12:54;;;;;;;23.02;12.00;;;;;;;8.92;65.23;100001.75;5080591;28;20028;-63
2023/01/10 05:15:21;;;;;;;22.27;11.20;;;;;;;8.76;65.41;100003.84;5077655;28;20032;-63
2023/01/10 05:17:47;;;;;;;21.13;10.82;;;;;;;8.77;65.73;100002.06;5077010;28;20176;-62
2023/01/10 05:20:12;;;;;;;21.25;11.23;;;;;;;8.88;65.59;100011.44;5067551;28;20500;-62
2023/01/10 05:22:38;;;;;;;35.67;16.60;;;;;;;8.97;65.43;100012.13;5079056;28;20071;-61
2023/01/10 05:25:05;;;;;;;28.13;14.40;;;;;;;9.06;65.18;100009.34;5075467;28;20153;-62
2023/01/10 05:27:30;;;;;;;21.15;11.05;;;;;;;9.09;64.97;100012.75;5058534;28;20161;-63
2023/01/10 05:29:56;;;;;;;22.48;11.93;;;;;;;8.70;65.82;100021.41;5074533;28;20046;-62
2023/01/10 05:32:21;;;;;;;20.35;10.90;;;;;;;8.93;65.39;100023.59;5084734;28;20047;-62
2023/01/10 05:34:47;;;;;;;19.25;10.63;;;;;;;8.99;65.14;100028.72;5065145;28;20053;-62
2023/01/10 05:37:13;;;;;;;19.13;10.70;;;;;;;9.07;65.20;100030.28;5064003;28;20116;-62
2023/01/10 05:39:40;;;;;;;21.25;11.43;;;;;;;9.12;64.78;100038.88;5066620;28;20124;-62
2023/01/10 05:42:05;;;;;;;19.00;10.38;;;;;;;9.03;64.71;100040.84;5061117;28;20044;-63
2023/01/10 05:44:31;;;;;;;18.90;10.80;;;;;;;8.99;64.90;100040.06;5071815;28;20039;-62
2023/01/10 05:46:56;;;;;;;17.92;11.05;;;;;;;9.00;64.98;100049.63;5079757;28;20029;-62
2023/01/10 05:49:22;;;;;;;19.67;11.10;;;;;;;9.00;64.92;100051.41;5078002;28;20048;-60
2023/01/10 05:51:48;;;;;;;19.42;11.25;;;;;;;9.03;64.91;100046.94;5078243;28;20032;-62
2023/01/10 05:54:13;;;;;;;19.05;11.20;;;;;;;9.02;64.87;100058.34;5083143;28;20035;-62
2023/01/10 05:56:39;;;;;;;28.02;14.35;;;;;;;8.77;65.22;100055.31;5079229;28;20475;-63
2023/01/10 05:59:04;;;;;;;29.23;15.13;;;;;;;8.61;65.86;100046.03;5074834;28;20040;-62
2023/01/10 06:01:30;;;;;;;30.77;15.75;;;;;;;7.51;69.06;100056.56;5050535;28;20507;-62
2023/01/10 06:03:55;;;;;;;36.00;17.10;;;;;;;7.18;70.33;100054.38;5054320;28;20044;-61
2023/01/10 06:06:21;;;;;;;29.67;15.63;;;;;;;7.76;69.13;100069.28;5072748;28;20718;-62
2023/01/10 06:08:46;;;;;;;28.33;14.65;;;;;;;8.02;67.50;100085.44;5073471;28;20036;-62
2023/01/10 06:11:12;;;;;;;25.23;13.13;;;;;;;7.72;68.19;100080.66;5073524;28;20158;-62
2023/01/10 06:13:37;;;;;;;27.25;13.90;;;;;;;8.03;67.52;100097.63;5074270;28;20036;-62
2023/01/10 06:16:03;;;;;;;28.58;14.18;;;;;;;7.75;68.35;100096.31;5073814;28;20044;-62
2023/01/10 06:18:29;;;;;;;32.05;15.32;;;;;;;7.06;70.83;100099.81;5074177;28;20094;-63
2023/01/10 06:20:54;;;;;;;39.65;16.73;;;;;;;6.88;71.50;100108.75;5074101;28;20032;-62
2023/01/10 06:23:20;;;;;;;50.22;19.60;;;;;;;6.89;71.96;100119.16;5074326;28;20028;-62
2023/01/10 06:25:45;;;;;;;49.97;20.15;;;;;;;7.72;69.22;100107.69;5074102;28;20384;-62
2023/01/10 06:28:12;;;;;;;54.88;16.13;;;;;;;8.03;67.77;100121.19;5073594;28;20045;-62
2023/01/10 06:30:40;;;;;;;44.05;15.43;;;;;;;8.30;66.54;100117.25;5073997;28;20036;-62
2023/01/10 06:33:07;;;;;;;49.53;13.73;;;;;;;8.31;66.30;100128.59;5073841;28;20090;-62
2023/01/10 06:35:36;;;;;;;61.30;15.07;;;;;;;8.34;66.12;100128.56;5073783;28;20040;-62
2023/01/10 06:38:02;;;;;;;51.95;13.02;;;;;;;8.26;66.14;100135.63;5074003;28;20036;-63
2023/01/10 06:40:28;;;;;;;82.18;23.52;;;;;;;8.34;65.81;100134.66;5074066;28;20031;-62
2023/01/10 06:42:54;;;;;;;39.97;15.30;;;;;;;8.36;65.83;100135.47;5056122;28;20040;-62
2023/01/10 06:45:19;;;;;;;109.75;16.88;;;;;;;8.44;65.73;100138.00;5055877;28;20123;-62
2023/01/10 06:47:47;;;;;;;73.13;13.30;;;;;;;8.46;65.71;100141.47;5073647;28;20029;-62
2023/01/10 06:50:13;;;;;;;40.70;10.93;;;;;;;8.55;65.46;100149.16;5073658;28;20101;-62
2023/01/10 06:52:39;;;;;;;45.20;11.13;;;;;;;8.57;65.48;100155.22;5073787;28;20468;-63
2023/01/10 06:55:05;;;;;;;58.95;13.13;;;;;;;8.67;65.32;100158.56;5073918;28;20111;-62
2023/01/10 06:57:34;;;;;;;142.55;14.93;;;;;;;8.66;65.13;100161.19;5071606;28;20056;-62
2023/01/10 07:00:04;;;;;;;76.05;12.32;;;;;;;8.57;65.12;100163.06;5072203;28;20062;-63
2023/01/10 07:02:29;;;;;;;70.25;12.20;;;;;;;8.49;65.26;100157.09;5055562;28;20117;-63
2023/01/10 07:04:54;;;;;;;109.50;14.07;;;;;;;8.40;65.56;100170.34;5073851;28;20476;-63
2023/01/10 07:07:20;;;;;;;56.45;11.55;;;;;;;8.20;65.69;100178.47;5073649;28;20464;-62
2023/01/10 07:09:46;;;;;;;82.85;13.23;;;;;;;8.12;66.13;100182.97;5073260;28;20067;-63
2023/01/10 07:12:11;;;;;;;73.82;14.38;;;;;;;7.90;66.56;100198.97;5055563;28;20039;-63
2023/01/10 07:14:37;;;;;;;68.28;15.15;;;;;;;8.06;66.78;100191.78;5073484;28;20043;-62
2023/01/10 07:17:02;;;;;;;58.50;14.52;;;;;;;8.09;66.68;100199.56;5073175;28;20115;-62
2023/01/10 07:19:28;;;;;;;99.60;16.35;;;;;;;8.11;66.41;100202.19;5072402;28;20025;-63
2023/01/10 07:21:53;;;;;;;118.80;16.05;;;;;;;8.02;66.55;100204.91;5073568;28;20081;-62
2023/01/10 07:24:19;;;;;;;59.88;13.98;;;;;;;8.08;66.50;100207.44;5073411;28;20411;-62
2023/01/10 07:26:44;;;;;;;87.55;13.68;;;;;;;7.82;66.71;100203.47;5073196;28;20032;-62
2023/01/10 07:29:11;;;;;;;21.77;9.95;;;;;;;7.85;66.99;100218.22;5052944;28;20385;-62
2023/01/10 07:31:36;;;;;;;48.08;11.73;;;;;;;7.84;66.84;100203.41;5053133;28;20040;-62
2023/01/10 07:34:02;;;;;;;38.05;11.45;;;;;;;8.08;66.43;100210.06;5053518;28;20056;-63
2023/01/10 07:36:27;;;;;;;29.85;11.18;;;;;;;8.12;66.12;100212.63;5052181;28;20033;-63
2023/01/10 07:38:53;;;;;;;33.38;13.52;;;;;;;8.24;65.58;100211.56;5051976;28;20123;-62
2023/01/10 07:41:18;;;;;;;32.67;11.05;;;;;;;8.32;65.34;100209.69;5052118;28;20121;-62
2023/01/10 07:43:44;;;;;;;22.75;12.25;;;;;;;8.49;65.22;100216.47;5051884;28;20033;-63
2023/01/10 07:46:11;;;;;;;32.72;14.02;;;;;;;8.60;64.83;100219.78;5052967;28;20457;-63
2023/01/10 07:48:37;;;;;;;27.00;12.15;;;;;;;8.69;64.64;100234.47;5053100;28;20033;-63
2023/01/10 07:51:03;;;;;;;24.05;11.02;;;;;;;8.69;64.01;100234.47;5053059;28;20068;-63
2023/01/10 07:53:29;;;;;;;29.23;11.65;;;;;;;8.48;64.16;100243.56;5053115;28;20033;-63
2023/01/10 07:55:59;;;;;;;16.25;9.18;;;;;;;8.36;64.46;100247.19;5051772;28;20033;-63
2023/01/10 07:58:25;;;;;;;14.52;7.60;;;;;;;8.36;64.76;100257.66;5053013;28;20128;-62
2023/01/10 08:00:51;;;;;;;30.20;9.60;;;;;;;8.34;64.84;100272.53;5051941;28;20468;-63
2023/01/10 08:03:17;;;;;;;41.67;10.80;;;;;;;8.03;64.74;100278.16;5052130;28;20075;-62
2023/01/10 08:05:43;;;;;;;47.25;9.57;;;;;;;7.79;65.67;100274.09;5052901;28;20059;-62
2023/01/10 08:08:10;;;;;;;36.03;9.75;;;;;;;7.85;65.56;100278.38;5052708;28;20480;-62
2023/01/10 08:10:39;;;;;;;24.33;10.10;;;;;;;8.09;65.46;100282.44;5052863;28;20044;-64
2023/01/10 08:13:04;;;;;;;42.92;9.82;;;;;;;8.19;64.97;100281.44;5052733;28;20130;-63
2023/01/10 08:15:30;;;;;;;18.10;9.40;;;;;;;8.31;64.92;100285.66;5052665;28;20476;-63
2023/01/10 08:18:00;;;;;;;40.40;10.57;;;;;;;8.51;64.24;100283.66;5052496;28;20025;-63
2023/01/10 08:20:25;;;;;;;14.93;8.43;;;;;;;8.61;63.99;100287.84;5053705;28;20028;-63
2023/01/10 08:22:50;;;;;;;27.35;9.68;;;;;;;8.71;63.61;100298.19;5056614;28;20116;-63
2023/01/10 08:25:16;;;;;;;26.40;9.52;;;;;;;8.83;63.28;100303.25;5056389;28;20419;-63
2023/01/10 08:27:41;;;;;;;25.40;8.27;;;;;;;8.82;62.95;100309.38;5063603;28;20083;-63
2023/01/10 08:30:08;;;;;;;14.75;8.27;;;;;;;8.75;63.26;100319.09;5076221;28;20074;-63
2023/01/10 08:32:33;;;;;;;28.58;9.13;;;;;;;8.83;63.12;100321.59;5058696;28;20040;-63
2023/01/10 08:34:58;;;;;;;56.63;9.68;;;;;;;8.77;63.19;100322.53;5076326;28;20027;-63
2023/01/10 08:37:24;;;;;;;40.00;8.23;;;;;;;8.80;63.21;100319.00;5076333;28;20553;-63
2023/01/10 08:39:49;;;;;;;55.63;11.05;;;;;;;8.70;63.18;100320.91;5058339;28;20434;-63
2023/01/10 08:42:15;;;;;;;50.42;8.57;;;;;;;8.44;63.52;100325.66;5041483;28;20033;-63
2023/01/10 08:44:41;;;;;;;58.25;9.50;;;;;;;8.21;64.15;100336.38;5075945;28;20025;-63
2023/01/10 08:47:07;;;;;;;42.33;8.68;;;;;;;8.14;64.48;100335.63;5075982;28;20056;-63
2023/01/10 08:49:32;;;;;;;73.03;10.45;;;;;;;7.98;65.00;100336.66;5075975;28;20024;-63
2023/01/10 08:51:58;;;;;;;45.65;9.38;;;;;;;7.92;65.35;100348.06;5075936;28;20036;-63
2023/01/10 08:54:23;;;;;;;33.65;9.48;;;;;;;7.95;65.62;100347.19;5075909;28;20024;-63
2023/01/10 08:56:52;;;;;;;25.40;10.23;;;;;;;7.98;65.45;100350.63;5057905;28;20392;-62
2023/01/10 08:59:17;;;;;;;50.95;10.82;;;;;;;7.90;65.56;100352.47;5075957;28;20567;-63
2023/01/10 09:01:43;;;;;;;31.27;9.63;;;;;;;8.05;65.19;100351.41;5072679;28;20124;-64
2023/01/10 09:04:08;;;;;;;32.30;10.52;;;;;;;8.01;65.50;100361.03;5075622;28;20036;-63
2023/01/10 09:06:34;;;;;;;19.10;10.68;;;;;;;8.35;64.86;100358.03;5075717;28;20077;-63
2023/01/10 09:08:59;;;;;;;24.55;11.10;;;;;;;8.68;64.36;100359.34;5057613;28;20507;-63
2023/01/10 09:11:24;;;;;;;21.92;10.95;;;;;;;9.03;63.67;100365.84;5075044;28;20392;-63
2023/01/10 09:13:50;;;;;;;24.88;11.38;;;;;;;9.30;62.99;100359.28;5073431;28;20111;-63
2023/01/10 09:16:16;;;;;;;22.95;12.77;;;;;;;9.53;62.33;100367.59;5056269;28;20029;-63
2023/01/10 09:18:42;;;;;;;21.42;11.55;;;;;;;9.71;61.72;100368.19;5075350;28;20044;-63
2023/01/10 09:21:07;;;;;;;21.50;12.10;;;;;;;9.86;61.22;100379.25;5074922;28;20040;-63
2023/01/10 09:23:33;;;;;;;23.92;14.75;;;;;;;9.81;60.85;100373.25;5074260;28;20028;-64
2023/01/10 09:25:59;;;;;;;25.33;15.55;;;;;;;9.76;60.99;100375.06;5090830;28;20407;-63
2023/01/10 09:28:25;;;;;;;20.58;12.10;;;;;;;9.82;61.08;100384.59;5073118;28;20499;-63
2023/01/10 09:30:50;;;;;;;24.23;13.73;;;;;;;9.85;60.84;100390.66;5075277;28;20041;-63
2023/01/10 09:33:16;;;;;;;21.63;12.60;;;;;;;9.91;60.66;100400.16;5056383;28;20049;-63
2023/01/10 09:35:42;;;;;;;18.85;11.05;;;;;;;9.85;60.80;100395.91;5075151;28;20056;-63
2023/01/10 09:38:13;;;;;;;21.00;11.27;;;;;;;9.89;60.40;100399.31;5075020;28;20064;-63
2023/01/10 09:41:16;;;;;;;18.75;9.68;;;;;;;9.75;60.03;100411.84;5074947;28;20111;-62
2023/01/10 09:44:11;;;;;;;17.95;9.43;;;;;;;9.56;61.12;100409.53;5057394;28;20024;-63
2023/01/10 09:46:42;;;;;;;16.52;9.00;;;;;;;9.76;61.29;100403.06;5071841;28;20495;-63
2023/01/10 09:49:32;;;;;;;14.75;9.35;;;;;;;9.89;60.38;100407.19;5074802;28;20455;-63
2023/01/10 09:51:59;;;;;;;15.48;9.30;;;;;;;10.07;60.19;100401.59;5074932;28;20507;-63
2023/01/10 09:54:30;;;;;;;17.17;9.90;;;;;;;9.95;60.28;100401.84;5057091;28;20028;-62
2023/01/10 09:56:58;;;;;;;17.65;9.55;;;;;;;9.96;60.32;100400.94;5074734;28;20035;-63
2023/01/10 09:59:26;;;;;;;15.65;8.60;;;;;;;10.01;60.45;100399.09;5074640;28;20395;-62
2023/01/10 10:01:59;;;;;;;18.15;12.10;;;;;;;9.98;60.35;100412.28;5074780;28;20029;-62
2023/01/10 10:04:28;;;;;;;18.02;9.80;;;;;;;10.13;60.19;100413.72;5074830;28;20071;-61
2023/01/10 10:06:54;;;;;;;17.60;9.82;;;;;;;10.29;59.96;100414.34;5074565;28;20024;-62
2023/01/10 10:09:26;;;;;;;18.48;10.73;;;;;;;10.06;59.94;100413.00;5056410;28;20051;-63
2023/01/10 10:12:00;;;;;;;21.20;13.10;;;;;;;9.91;60.39;100425.56;5074341;28;20111;-63
2023/01/10 10:14:46;;;;;;;23.45;13.88;;;;;;;9.77;60.44;100423.16;5074293;28;20029;-62
2023/01/10 10:17:41;;;;;;;26.98;14.52;;;;;;;9.62;60.89;100422.53;5056544;28;20043;-62
2023/01/10 10:20:22;;;;;;;20.10;11.85;;;;;;;9.55;61.39;100428.78;5044852;28;20045;-63
2023/01/10 10:23:10;;;;;;;22.98;12.40;;;;;;;9.50;61.42;100428.00;5072410;28;20037;-62
2023/01/10 10:25:59;;;;;;;25.38;13.95;;;;;;;9.23;62.12;100433.69;5071631;28;20111;-62
2023/01/10 10:28:47;;;;;;;23.52;13.48;;;;;;;9.26;62.13;100425.78;5072741;28;20048;-63
2023/01/10 10:31:27;;;;;;;24.65;13.32;;;;;;;9.53;61.60;100429.69;5073690;28;20033;-63
2023/01/10 10:34:21;;;;;;;24.45;13.63;;;;;;;9.66;61.30;100430.38;5072091;28;20035;-63
2023/01/10 10:37:04;;;;;;;25.77;13.07;;;;;;;9.55;61.58;100434.03;5070404;28;20056;-63
2023/01/10 10:39:35;;;;;;;;;;;;;;;9.45;61.73;100431.56;5072344;28;20418;-63
2023/01/10 10:42:02;;;;;;;23.63;12.57;;;;;;;9.53;61.62;100433.16;5073681;28;19916;-63
2023/01/10 10:44:46;;;;;;;23.15;12.80;;;;;;;9.76;61.64;100424.06;5075512;28;20034;-63
2023/01/10 10:47:19;;;;;;;25.75;14.07;;;;;;;9.71;61.27;100433.78;5071865;28;20384;-63
2023/01/10 10:50:12;;;;;;;31.50;15.93;;;;;;;9.62;61.54;100429.56;5053784;28;20091;-64
2023/01/10 10:52:38;;;;;;;24.95;13.52;;;;;;;9.69;61.38;100433.78;5053662;28;20036;-63
2023/01/10 10:55:06;;;;;;;27.58;15.98;;;;;;;9.69;61.76;100430.28;5053664;28;20037;-63
2023/01/10 10:57:37;;;;;;;31.98;17.88;;;;;;;9.73;61.47;100431.97;5053602;28;20155;-63
2023/01/10 11:00:04;;;;;;;26.13;14.07;;;;;;;9.63;61.52;100428.66;5053554;28;20477;-62
2023/01/10 11:02:37;;;;;;;32.08;17.35;;;;;;;9.85;61.68;100429.13;5053614;28;20029;-62
2023/01/10 11:05:07;;;;;;;25.13;14.27;;;;;;;10.07;61.09;100434.88;5069220;28;20040;-63
2023/01/10 11:07:35;;;;;;;25.08;14.20;;;;;;;10.16;60.78;100436.44;5053305;28;20427;-62
2023/01/10 11:12:49;;;;;;;27.00;14.75;;;;;;;9.77;61.46;100444.16;5053559;28;20040;-63
2023/01/10 11:15:43;;;;;;;27.33;15.43;;;;;;;9.63;61.66;100453.13;5035912;28;20484;-63
2023/01/10 11:18:19;;;;;;;30.95;15.25;;;;;;;9.58;62.01;100451.50;5066143;28;20041;-62
2023/01/10 11:20:59;;;;;;;28.58;14.68;;;;;;;9.67;61.88;100453.94;5053647;28;20372;-62
2023/01/10 11:23:48;;;;;;;28.42;15.05;;;;;;;9.68;62.23;100452.19;5053440;28;20032;-63
2023/01/10 11:26:25;;;;;;;26.88;13.88;;;;;;;9.74;62.15;100455.59;5053354;28;20472;-62
2023/01/10 11:29:01;;;;;;;27.48;14.27;;;;;;;9.86;61.83;100457.13;5053021;28;20056;-63
2023/01/10 11:31:27;;;;;;;25.73;13.05;;;;;;;10.08;61.41;100453.22;5053129;28;20032;-63
2023/01/10 11:33:54;;;;;;;25.42;14.10;;;;;;;10.19;60.99;100452.16;5053549;28;20108;-63
2023/01/10 11:36:19;;;;;;;30.33;15.38;;;;;;;10.09;61.28;100451.44;5053449;28;20097;-63
2023/01/10 11:38:59;;;;;;;26.48;14.55;;;;;;;10.12;61.32;100461.91;5053317;28;20041;-63